createdAt,value
2023-05-10T00:01:30.816Z,25.25
2023-05-10T00:03:55.567Z,19.92
2023-05-10T00:06:20.324Z,20.42
2023-05-10T00:08:47.502Z,20.35
2023-05-10T00:11:11.777Z,21.67
2023-05-10T00:13:36.146Z,20.05
2023-05-10T00:16:00.665Z,20.85
2023-05-10T00:18:25.093Z,23.35
2023-05-10T00:20:49.802Z,18.80
2023-05-10T00:23:14.219Z,24.60
2023-05-10T00:25:40.066Z,21.98
2023-05-10T00:28:04.419Z,22.75
2023-05-10T00:30:28.913Z,24.02
2023-05-10T00:32:53.223Z,20.35
2023-05-10T00:35:17.798Z,20.52
2023-05-10T00:37:42.107Z,20.42
2023-05-10T00:40:08.033Z,26.80
2023-05-10T00:42:33.748Z,22.38
2023-05-10T00:44:58.607Z,21.90
2023-05-10T00:47:23.064Z,22.13
2023-05-10T00:49:48.402Z,23.90
2023-05-10T00:52:12.880Z,20.40
2023-05-10T00:54:37.522Z,23.13
2023-05-10T00:57:02.381Z,20.27
2023-05-10T00:59:29.181Z,23.38
2023-05-10T01:01:54.258Z,23.70
2023-05-10T01:04:18.850Z,26.48
2023-05-10T01:06:43.738Z,24.23
2023-05-10T01:09:08.316Z,22.08
2023-05-10T01:11:32.899Z,22.00
2023-05-10T01:13:59.128Z,18.67
2023-05-10T01:16:26.405Z,20.58
2023-05-10T01:18:51.583Z,18.38
2023-05-10T01:21:23.368Z,19.42
2023-05-10T01:24:35.494Z,20.00
2023-05-10T01:27:25.497Z,19.40
2023-05-10T01:32:48.008Z,19.52
2023-05-10T01:35:19.285Z,23.85
2023-05-10T01:37:48.908Z,18.60
2023-05-10T01:40:24.827Z,21.13
2023-05-10T01:42:53.830Z,24.92
2023-05-10T01:45:27.730Z,17.45
2023-05-10T01:48:01.416Z,17.95
2023-05-10T01:50:31.312Z,22.08
2023-05-10T01:52:58.824Z,19.10
2023-05-10T01:55:25.001Z,20.15
2023-05-10T01:57:55.032Z,18.77
2023-05-10T02:00:22.259Z,21.75
2023-05-10T02:02:51.773Z,21.52
2023-05-10T02:05:19.425Z,16.83
2023-05-10T02:07:44.282Z,19.27
2023-05-10T02:10:11.329Z,24.95
2023-05-10T02:12:38.836Z,21.35
2023-05-10T02:15:06.659Z,24.38
2023-05-10T02:17:32.758Z,20.58
2023-05-10T02:19:59.224Z,27.65
2023-05-10T02:22:26.309Z,20.02
2023-05-10T02:24:52.514Z,21.73
2023-05-10T02:27:17.751Z,19.52
2023-05-10T02:29:42.724Z,15.63
2023-05-10T02:32:08.072Z,18.52
2023-05-10T02:34:33.332Z,20.75
2023-05-10T02:36:58.949Z,20.70
2023-05-10T02:39:26.085Z,21.08
2023-05-10T02:41:52.326Z,24.52
2023-05-10T02:44:19.896Z,19.85
2023-05-10T02:46:44.828Z,18.83
2023-05-10T02:49:09.378Z,18.75
2023-05-10T02:51:37.193Z,17.77
2023-05-10T02:54:06.161Z,17.77
2023-05-10T02:56:36.638Z,21.38
2023-05-10T02:59:01.264Z,19.65
2023-05-10T03:01:25.847Z,18.55
2023-05-10T03:03:50.246Z,18.23
2023-05-10T03:06:14.764Z,16.85
2023-05-10T03:08:39.837Z,17.58
2023-05-10T03:11:26.564Z,17.90
2023-05-10T03:14:10.885Z,18.73
2023-05-10T03:16:44.859Z,18.83
2023-05-10T03:19:17.159Z,18.77
2023-05-10T03:21:45.688Z,21.15
2023-05-10T03:24:13.903Z,17.52
2023-05-10T03:26:41.008Z,18.30
2023-05-10T03:29:12.424Z,22.40
2023-05-10T03:31:36.914Z,18.70
2023-05-10T03:34:01.238Z,18.40
2023-05-10T03:36:25.831Z,17.30
2023-05-10T03:38:50.482Z,16.55
2023-05-10T03:41:15.566Z,18.98
2023-05-10T03:43:39.987Z,17.15
2023-05-10T03:46:06.812Z,20.90
2023-05-10T03:48:31.991Z,20.98
2023-05-10T03:50:56.372Z,32.05
2023-05-10T03:53:21.168Z,18.83
2023-05-10T03:55:47.154Z,20.88
2023-05-10T03:58:13.805Z,20.45
2023-05-10T04:00:38.461Z,21.30
2023-05-10T04:03:04.278Z,22.20
2023-05-10T04:05:28.718Z,20.83
2023-05-10T04:07:54.193Z,20.05
2023-05-10T04:10:19.118Z,20.13
2023-05-10T04:12:43.973Z,23.75
2023-05-10T04:15:09.563Z,23.00
2023-05-10T04:17:34.042Z,21.27
2023-05-10T04:19:59.827Z,19.63
2023-05-10T04:22:24.301Z,23.73
2023-05-10T04:24:48.589Z,20.25
2023-05-10T04:27:15.335Z,22.60
2023-05-10T04:29:39.752Z,22.27
2023-05-10T04:32:04.622Z,20.48
2023-05-10T04:34:29.669Z,28.08
2023-05-10T04:36:55.465Z,22.77
2023-05-10T04:39:20.144Z,21.05
2023-05-10T04:41:44.518Z,21.23
2023-05-10T04:44:08.897Z,20.57
2023-05-10T04:46:33.313Z,21.55
2023-05-10T04:48:57.615Z,23.17
2023-05-10T04:51:22.513Z,18.77
2023-05-10T04:54:01.446Z,20.70
2023-05-10T04:56:29.405Z,19.42
2023-05-10T04:58:53.723Z,25.52
2023-05-10T05:01:18.457Z,16.90
2023-05-10T05:03:43.863Z,22.48
2023-05-10T05:06:08.833Z,21.40
2023-05-10T05:08:33.311Z,18.38
2023-05-10T05:11:00.411Z,18.58
2023-05-10T05:13:24.862Z,22.08
2023-05-10T05:15:49.355Z,17.15
2023-05-10T05:18:13.774Z,20.33
2023-05-10T05:20:38.487Z,20.08
2023-05-10T05:23:02.916Z,17.42
2023-05-10T05:25:27.427Z,15.93
2023-05-10T05:27:53.093Z,18.23
2023-05-10T05:30:18.286Z,17.88
2023-05-10T05:32:42.852Z,15.40
2023-05-10T05:35:07.906Z,20.33
2023-05-10T05:37:32.391Z,15.65
2023-05-10T05:39:56.850Z,15.85
2023-05-10T05:42:23.046Z,12.70
2023-05-10T05:44:48.846Z,16.23
2023-05-10T05:47:13.426Z,18.30
2023-05-10T05:49:37.953Z,15.32
2023-05-10T05:52:02.808Z,18.05
2023-05-10T05:54:30.381Z,17.67
2023-05-10T05:56:57.107Z,14.88
2023-05-10T05:59:22.564Z,15.00
2023-05-10T06:01:48.468Z,13.43
2023-05-10T06:04:14.263Z,15.07
2023-05-10T06:06:38.745Z,16.48
2023-05-10T06:09:04.219Z,16.60
2023-05-10T06:11:28.712Z,14.27
2023-05-10T06:13:53.153Z,14.55
2023-05-10T06:16:17.616Z,13.82
2023-05-10T06:18:43.639Z,14.07
2023-05-10T06:21:08.096Z,16.90
2023-05-10T06:23:34.189Z,14.23
2023-05-10T06:25:58.918Z,13.18
2023-05-10T06:28:23.756Z,9.93
2023-05-10T06:30:50.143Z,10.25
2023-05-10T06:33:14.863Z,9.15
2023-05-10T06:35:40.819Z,12.48
2023-05-10T06:38:05.565Z,11.40
2023-05-10T06:40:30.381Z,9.52
2023-05-10T06:42:55.166Z,13.30
2023-05-10T06:45:20.273Z,10.18
2023-05-10T06:47:45.498Z,14.00
2023-05-10T06:50:11.140Z,9.30
2023-05-10T06:52:37.425Z,8.88
2023-05-10T06:55:02.695Z,8.90
2023-05-10T06:57:46.496Z,7.50
2023-05-10T07:00:12.474Z,7.80
2023-05-10T07:02:48.174Z,8.43
2023-05-10T07:05:13.893Z,8.75
2023-05-10T07:07:41.129Z,12.50
2023-05-10T07:10:14.606Z,9.93
2023-05-10T07:12:44.809Z,13.50
2023-05-10T07:15:14.514Z,7.07
2023-05-10T07:17:46.029Z,9.07
2023-05-10T07:20:12.095Z,10.20
2023-05-10T07:22:36.813Z,9.60
2023-05-10T07:25:21.083Z,7.55
2023-05-10T07:27:46.129Z,10.00
2023-05-10T07:30:15.398Z,10.98
2023-05-10T07:32:43.077Z,7.95
2023-05-10T07:35:10.219Z,8.57
2023-05-10T07:37:37.214Z,8.23
2023-05-10T07:40:05.068Z,8.05
2023-05-10T07:42:31.290Z,7.75
2023-05-10T07:44:56.168Z,12.93
2023-05-10T07:47:20.923Z,8.25
2023-05-10T07:49:48.514Z,9.93
2023-05-10T07:52:16.519Z,6.32
2023-05-10T07:54:41.091Z,7.47
2023-05-10T07:57:05.916Z,11.82
2023-05-10T07:59:33.352Z,7.20
2023-05-10T08:01:58.017Z,14.73
2023-05-10T08:04:23.416Z,11.40
2023-05-10T08:06:48.114Z,10.73
2023-05-10T08:09:14.674Z,8.23
2023-05-10T08:11:39.600Z,15.15
2023-05-10T08:14:04.216Z,8.63
2023-05-10T08:16:30.336Z,7.85
2023-05-10T08:18:56.394Z,6.45
2023-05-10T08:21:21.530Z,7.47
2023-05-10T08:23:46.224Z,8.00
2023-05-10T08:26:12.958Z,7.30
2023-05-10T08:28:40.742Z,8.27
2023-05-10T08:31:05.543Z,7.38
2023-05-10T08:33:31.774Z,8.68
2023-05-10T08:35:56.592Z,8.13
2023-05-10T08:38:26.006Z,26.65
2023-05-10T08:40:58.135Z,12.45
2023-05-10T08:43:32.389Z,9.37
2023-05-10T08:46:00.441Z,8.23
2023-05-10T08:48:27.322Z,11.60
2023-05-10T08:50:56.305Z,7.95
2023-05-10T08:53:22.467Z,10.02
2023-05-10T08:55:47.516Z,9.27
2023-05-10T08:58:13.052Z,6.70
2023-05-10T09:00:39.074Z,7.97
2023-05-10T09:03:07.567Z,5.95
2023-05-10T09:05:42.450Z,7.53
2023-05-10T09:08:13.930Z,10.68
2023-05-10T09:10:43.489Z,10.15
2023-05-10T09:13:10.022Z,7.75
2023-05-10T09:15:35.191Z,9.73
2023-05-10T09:18:18.759Z,10.90
2023-05-10T09:20:46.210Z,8.40
2023-05-10T09:23:13.806Z,9.30
2023-05-10T09:25:42.048Z,8.93
2023-05-10T09:28:12.982Z,9.32
2023-05-10T09:30:44.019Z,10.00
2023-05-10T09:33:09.019Z,8.98
2023-05-10T09:35:35.830Z,9.93
2023-05-10T09:38:07.528Z,8.27
2023-05-10T09:40:33.987Z,8.63
2023-05-10T09:43:00.974Z,11.18
2023-05-10T09:45:27.509Z,12.38
2023-05-10T09:48:03.074Z,13.88
2023-05-10T09:50:34.129Z,8.15
2023-05-10T09:53:02.003Z,13.02
2023-05-10T09:55:28.499Z,14.48
2023-05-10T09:58:03.681Z,9.82
2023-05-10T10:00:30.067Z,9.82
2023-05-10T10:02:58.428Z,9.25
2023-05-10T10:05:24.731Z,9.68
2023-05-10T10:07:51.703Z,8.43
2023-05-10T10:10:19.641Z,10.90
2023-05-10T10:12:47.966Z,9.73
2023-05-10T10:15:19.325Z,9.43
2023-05-10T10:17:47.559Z,8.75
2023-05-10T10:20:13.033Z,10.27
2023-05-10T10:22:39.021Z,6.60
2023-05-10T10:25:04.235Z,7.47
2023-05-10T10:27:38.194Z,7.32
2023-05-10T10:30:10.183Z,7.43
2023-05-10T10:32:50.525Z,10.82
2023-05-10T10:35:15.539Z,14.10
2023-05-10T10:37:47.577Z,9.05
2023-05-10T10:40:29.081Z,8.88
2023-05-10T10:42:54.698Z,9.70
2023-05-10T10:45:19.629Z,7.55
2023-05-10T10:47:47.151Z,11.30
2023-05-10T10:50:14.067Z,7.90
2023-05-10T10:52:40.069Z,9.65
2023-05-10T10:55:09.916Z,5.45
2023-05-10T10:57:44.607Z,8.18
2023-05-10T11:00:28.064Z,11.00
2023-05-10T11:02:55.794Z,6.57
2023-05-10T11:05:41.446Z,6.35
2023-05-10T11:08:18.571Z,8.35
2023-05-10T11:10:53.217Z,8.73
2023-05-10T11:13:18.933Z,7.97
2023-05-10T11:15:55.184Z,7.75
2023-05-10T11:18:23.993Z,5.75
2023-05-10T11:20:54.110Z,6.88
2023-05-10T11:23:19.509Z,9.65
2023-05-10T11:25:51.573Z,8.50
2023-05-10T11:28:17.029Z,7.22
2023-05-10T11:30:44.510Z,9.02
2023-05-10T11:33:27.083Z,6.90
2023-05-10T11:35:53.273Z,7.28
2023-05-10T11:38:24.249Z,8.45
2023-05-10T11:40:50.066Z,9.35
2023-05-10T11:43:15.113Z,8.02
2023-05-10T11:45:42.292Z,6.18
2023-05-10T11:48:07.458Z,10.07
2023-05-10T11:50:32.318Z,8.18
2023-05-10T11:53:00.943Z,6.50
2023-05-10T11:55:26.458Z,6.43
2023-05-10T11:57:54.920Z,6.38
2023-05-10T12:00:20.259Z,8.82
2023-05-10T12:02:58.183Z,7.80
2023-05-10T12:05:24.586Z,9.32
2023-05-10T12:07:49.570Z,7.00
2023-05-10T12:10:21.157Z,8.60
2023-05-10T12:12:48.855Z,7.93
2023-05-10T12:15:14.972Z,6.38
2023-05-10T12:17:43.465Z,9.60
2023-05-10T12:20:22.372Z,12.82
2023-05-10T12:22:50.579Z,7.95
2023-05-10T12:25:17.605Z,5.80
2023-05-10T12:27:42.369Z,7.13
2023-05-10T12:30:08.261Z,6.93
2023-05-10T12:32:49.573Z,6.05
2023-05-10T12:35:14.218Z,5.47
2023-05-10T12:37:44.924Z,5.05
2023-05-10T12:40:13.045Z,7.18
2023-05-10T12:42:39.902Z,8.02
2023-05-10T12:45:11.453Z,6.50
2023-05-10T12:47:38.254Z,6.88
2023-05-10T12:50:03.853Z,6.82
2023-05-10T12:52:29.373Z,6.13
2023-05-10T12:54:54.167Z,6.25
2023-05-10T12:57:19.009Z,5.43
2023-05-10T12:59:47.243Z,6.95
2023-05-10T13:02:12.402Z,8.05
2023-05-10T13:04:38.707Z,4.43
2023-05-10T13:07:03.370Z,10.18
2023-05-10T13:09:32.982Z,7.00
2023-05-10T13:11:57.924Z,13.20
2023-05-10T13:17:23.865Z,8.95
2023-05-10T13:19:48.778Z,5.43
2023-05-10T13:22:13.761Z,8.15
2023-05-10T13:24:38.553Z,9.40
2023-05-10T13:27:06.311Z,8.27
2023-05-10T13:29:30.972Z,10.70
2023-05-10T13:31:55.852Z,11.63
2023-05-10T13:34:25.399Z,9.35
2023-05-10T13:36:50.498Z,8.23
2023-05-10T13:39:15.267Z,4.95
2023-05-10T13:41:40.027Z,6.70
2023-05-10T13:44:06.159Z,5.80
2023-05-10T13:46:32.232Z,7.35
2023-05-10T13:48:57.906Z,4.75
2023-05-10T13:51:24.105Z,4.70
2023-05-10T13:54:05.237Z,7.68
2023-05-10T13:56:29.991Z,8.95
2023-05-10T13:58:54.586Z,7.25
2023-05-10T14:01:34.647Z,5.40
2023-05-10T14:03:59.534Z,7.65
2023-05-10T14:06:28.214Z,4.88
2023-05-10T14:08:53.535Z,5.45
2023-05-10T14:11:18.614Z,5.68
2023-05-10T14:13:43.494Z,5.28
2023-05-10T14:16:11.275Z,10.45
2023-05-10T14:18:36.297Z,5.25
2023-05-10T14:21:00.975Z,4.82
2023-05-10T14:23:29.994Z,6.75
2023-05-10T14:25:55.725Z,10.18
2023-05-10T14:28:21.993Z,6.43
2023-05-10T14:30:47.415Z,10.15
2023-05-10T14:33:12.758Z,8.35
2023-05-10T14:35:37.424Z,5.90
2023-05-10T14:38:02.190Z,6.70
2023-05-10T14:40:31.817Z,10.27
2023-05-10T14:42:57.309Z,11.30
2023-05-10T14:45:23.617Z,8.85
2023-05-10T14:47:48.505Z,4.97
2023-05-10T14:50:28.223Z,8.15
2023-05-10T14:53:05.729Z,7.82
2023-05-10T14:55:31.934Z,6.22
2023-05-10T14:57:56.534Z,6.60
2023-05-10T15:00:22.432Z,9.32
2023-05-10T15:02:47.448Z,5.28
2023-05-10T15:05:13.995Z,6.07
2023-05-10T15:07:38.979Z,6.32
2023-05-10T15:10:03.936Z,10.30
2023-05-10T15:12:29.974Z,5.90
2023-05-10T15:14:54.741Z,5.05
2023-05-10T15:17:19.542Z,4.68
2023-05-10T15:19:44.474Z,3.67
2023-05-10T15:22:09.790Z,5.00
2023-05-10T15:24:34.438Z,4.10
2023-05-10T15:26:59.344Z,7.90
2023-05-10T15:29:26.255Z,4.75
2023-05-10T15:31:52.465Z,5.47
2023-05-10T15:34:17.363Z,4.05
2023-05-10T15:36:42.753Z,7.60
2023-05-10T15:39:08.031Z,6.10
2023-05-10T15:41:32.642Z,7.40
2023-05-10T15:43:58.555Z,6.03
2023-05-10T15:46:24.863Z,4.90
2023-05-10T15:48:49.720Z,6.57
2023-05-10T15:51:14.373Z,8.63
2023-05-10T15:53:46.609Z,7.95
2023-05-10T15:56:17.726Z,8.25
2023-05-10T15:58:44.007Z,8.35
2023-05-10T16:01:08.957Z,7.60
2023-05-10T16:03:38.138Z,6.90
2023-05-10T16:06:02.804Z,7.15
2023-05-10T16:08:27.330Z,8.65
2023-05-10T16:10:53.004Z,8.40
2023-05-10T16:13:20.000Z,8.60
2023-05-10T16:15:47.107Z,7.63
2023-05-10T16:18:12.575Z,8.43
2023-05-10T16:20:38.828Z,9.43
2023-05-10T16:23:05.619Z,8.85
2023-05-10T16:25:30.313Z,9.10
2023-05-10T16:27:54.876Z,8.25
2023-05-10T16:30:20.879Z,7.57
2023-05-10T16:32:46.890Z,5.35
2023-05-10T16:35:11.786Z,6.70
2023-05-10T16:37:37.785Z,8.02
2023-05-10T16:40:02.560Z,10.15
2023-05-10T16:42:29.115Z,6.63
2023-05-10T16:44:53.652Z,10.82
2023-05-10T16:47:18.336Z,5.32
2023-05-10T16:49:43.675Z,7.80
2023-05-10T16:52:08.436Z,7.18
2023-05-10T16:54:34.506Z,9.60
2023-05-10T16:56:59.176Z,8.98
2023-05-10T16:59:24.761Z,6.53
2023-05-10T17:01:49.367Z,8.50
2023-05-10T17:04:14.191Z,9.32
2023-05-10T17:06:39.290Z,7.60
2023-05-10T17:09:04.053Z,7.95
2023-05-10T17:11:30.207Z,10.98
2023-05-10T17:13:54.674Z,7.47
2023-05-10T17:18:46.716Z,9.55
2023-05-10T17:21:11.412Z,12.45
2023-05-10T17:23:36.013Z,12.73
2023-05-10T17:26:01.889Z,12.52
2023-05-10T17:28:28.345Z,12.05
2023-05-10T17:30:57.847Z,14.90
2023-05-10T17:33:22.451Z,9.30
2023-05-10T17:35:47.543Z,15.07
2023-05-10T17:38:15.860Z,10.65
2023-05-10T17:40:50.132Z,9.82
2023-05-10T17:43:17.280Z,10.45
2023-05-10T17:45:44.434Z,11.73
2023-05-10T17:48:11.435Z,11.00
2023-05-10T17:50:36.097Z,17.77
2023-05-10T17:53:00.756Z,16.13
2023-05-10T17:55:27.156Z,16.88
2023-05-10T17:57:52.050Z,14.02
2023-05-10T18:00:17.997Z,16.42
2023-05-10T18:02:43.991Z,13.02
2023-05-10T18:05:11.141Z,18.60
2023-05-10T18:07:38.846Z,19.55
2023-05-10T18:10:03.350Z,20.13
2023-05-10T18:12:28.065Z,17.35
2023-05-10T18:14:52.692Z,16.92
2023-05-10T18:17:18.146Z,15.10
2023-05-10T18:19:44.375Z,15.48
2023-05-10T18:22:11.237Z,11.25
2023-05-10T18:24:39.659Z,13.45
2023-05-10T18:27:06.041Z,14.05
2023-05-10T18:29:33.101Z,15.43
2023-05-10T18:32:03.129Z,19.20
2023-05-10T18:34:27.784Z,13.38
2023-05-10T18:36:54.199Z,12.63
2023-05-10T18:39:21.673Z,22.30
2023-05-10T18:41:48.357Z,13.18
2023-05-10T18:44:13.257Z,15.65
2023-05-10T18:46:38.356Z,13.13
2023-05-10T18:49:05.465Z,15.85
2023-05-10T18:51:34.396Z,14.60
2023-05-10T18:54:04.557Z,15.48
2023-05-10T18:56:32.731Z,13.68
2023-05-10T18:58:57.894Z,13.40
2023-05-10T19:01:27.522Z,15.82
2023-05-10T19:03:59.503Z,18.75
2023-05-10T19:06:29.134Z,18.33
2023-05-10T19:08:54.182Z,14.50
2023-05-10T19:11:22.214Z,15.15
2023-05-10T19:13:48.032Z,18.20
2023-05-10T19:16:17.079Z,18.02
2023-05-10T19:18:44.482Z,18.95
2023-05-10T19:21:11.179Z,14.75
2023-05-10T19:23:38.411Z,20.98
2023-05-10T19:26:03.590Z,16.65
2023-05-10T19:28:30.609Z,16.42
2023-05-10T19:30:56.122Z,14.13
2023-05-10T19:33:21.785Z,17.75
2023-05-10T19:35:47.193Z,12.82
2023-05-10T19:38:12.593Z,17.65
2023-05-10T19:40:37.536Z,15.45
2023-05-10T19:43:02.464Z,13.38
2023-05-10T19:45:29.923Z,17.17
2023-05-10T19:47:55.219Z,20.33
2023-05-10T19:50:23.683Z,18.20
2023-05-10T19:52:50.638Z,15.98
2023-05-10T19:55:26.917Z,18.23
2023-05-10T19:57:53.003Z,16.45
2023-05-10T20:00:18.373Z,16.73
2023-05-10T20:02:44.852Z,20.50
2023-05-10T20:05:10.400Z,16.60
2023-05-10T20:07:35.049Z,13.23
2023-05-10T20:10:00.105Z,20.60
2023-05-10T20:12:25.718Z,20.58
2023-05-10T20:14:50.768Z,18.58
2023-05-10T20:17:16.457Z,21.15
2023-05-10T20:19:43.116Z,17.10
2023-05-10T20:22:09.768Z,14.90
2023-05-10T20:24:34.548Z,18.42
2023-05-10T20:26:59.166Z,18.13
2023-05-10T20:29:24.229Z,13.27
2023-05-10T20:31:48.776Z,13.50
2023-05-10T20:34:13.506Z,16.13
2023-05-10T20:36:39.599Z,16.75
2023-05-10T20:39:04.256Z,15.70
2023-05-10T20:41:28.725Z,22.25
2023-05-10T20:43:53.344Z,17.02
2023-05-10T20:46:18.153Z,20.48
2023-05-10T20:48:42.741Z,15.98
2023-05-10T20:51:07.387Z,21.15
2023-05-10T20:53:33.418Z,17.05
2023-05-10T20:55:57.984Z,16.42
2023-05-10T20:58:22.699Z,22.10
2023-05-10T21:00:47.350Z,22.70
2023-05-10T21:03:12.105Z,20.70
2023-05-10T21:05:37.482Z,21.35
2023-05-10T21:08:02.411Z,18.10
2023-05-10T21:10:29.547Z,19.70
2023-05-10T21:12:54.242Z,17.75
2023-05-10T21:15:18.945Z,20.30
2023-05-10T21:17:43.744Z,18.65
2023-05-10T21:20:10.007Z,16.75
2023-05-10T21:22:34.436Z,20.85
2023-05-10T21:24:59.076Z,20.80
2023-05-10T21:27:25.148Z,20.63
2023-05-10T21:29:49.646Z,17.30
2023-05-10T21:32:15.051Z,21.65
2023-05-10T21:34:39.806Z,16.48
2023-05-10T21:37:04.502Z,15.23
2023-05-10T21:39:29.108Z,16.77
2023-05-10T21:41:53.847Z,15.30
2023-05-10T21:44:19.876Z,14.07
2023-05-10T21:46:45.507Z,17.98
2023-05-10T21:49:10.172Z,18.63
2023-05-10T21:51:34.809Z,14.70
2023-05-10T21:53:59.511Z,15.88
2023-05-10T21:56:24.201Z,20.42
2023-05-10T21:58:48.863Z,17.05
2023-05-10T22:01:17.189Z,15.98
2023-05-10T22:03:41.982Z,13.75
2023-05-10T22:06:06.885Z,16.80
2023-05-10T22:08:31.395Z,16.50
2023-05-10T22:10:56.554Z,17.80
2023-05-10T22:13:21.325Z,14.63
2023-05-10T22:15:46.031Z,18.27
2023-05-10T22:18:12.230Z,15.07
2023-05-10T22:20:38.274Z,17.88
2023-05-10T22:23:02.954Z,19.35
2023-05-10T22:25:27.613Z,18.98
2023-05-10T22:27:52.349Z,18.65
2023-05-10T22:30:17.265Z,23.48
2023-05-10T22:32:45.282Z,18.23
2023-05-10T22:35:11.840Z,18.08
2023-05-10T22:37:36.651Z,21.35
2023-05-10T22:40:01.494Z,15.73
2023-05-10T22:42:28.547Z,16.98
2023-05-10T22:44:53.280Z,16.38
2023-05-10T22:47:18.078Z,20.13
2023-05-10T22:49:42.551Z,17.20
2023-05-10T22:52:08.727Z,23.83
2023-05-10T22:54:34.910Z,16.83
2023-05-10T22:57:08.483Z,18.27
2023-05-10T22:59:56.163Z,19.42
2023-05-10T23:02:21.090Z,17.65
2023-05-10T23:04:45.582Z,14.95
2023-05-10T23:07:11.569Z,14.73
2023-05-10T23:09:36.006Z,20.67
2023-05-10T23:12:00.599Z,17.20
2023-05-10T23:14:25.043Z,15.52
2023-05-10T23:16:49.574Z,16.50
2023-05-10T23:19:14.082Z,17.13
2023-05-10T23:21:38.738Z,19.38
2023-05-10T23:24:04.788Z,22.13
2023-05-10T23:26:29.512Z,14.50
2023-05-10T23:28:54.024Z,20.00
2023-05-10T23:31:18.834Z,15.73
2023-05-10T23:33:43.472Z,17.15
2023-05-10T23:36:08.628Z,18.48
2023-05-10T23:38:33.389Z,16.58
2023-05-10T23:40:59.613Z,17.77
2023-05-10T23:43:25.426Z,18.63
2023-05-10T23:45:56.995Z,15.40
2023-05-10T23:48:21.925Z,20.75
2023-05-10T23:50:46.610Z,14.93
2023-05-10T23:53:11.465Z,15.40
2023-05-10T23:55:36.093Z,15.30
2023-05-10T23:58:02.187Z,19.42
